Time;durP1;ratioP1;P1;durP2;ratioP2;P2;SDS_P1;SDS_P2;PMS_P1;PMS_P2;Temp;Humidity;BMP_temperature;BMP_pressure;BME280_temperature;BME280_humidity;BME280_pressure;Samples;Min_cycle;Max_cycle;Signal;HPM_P1;HPM_P2
2022/08/17 00:02:19;;;;;;;3.40;2.30;;;27.50;52.80;;;;;;5068270;28;20054;-53
2022/08/17 00:04:46;;;;;;;2.78;2.10;;;27.50;52.90;;;;;;5086923;28;20040;-56
2022/08/17 00:07:13;;;;;;;2.72;2.47;;;27.40;53.00;;;;;;5087449;28;20533;-54
2022/08/17 00:09:40;;;;;;;3.20;2.72;;;27.40;53.10;;;;;;5077612;28;20054;-55
2022/08/17 00:12:09;;;;;;;3.42;3.13;;;27.40;53.30;;;;;;5071756;28;20056;-55
2022/08/17 00:14:36;;;;;;;3.35;1.98;;;27.30;53.40;;;;;;5087128;28;20040;-50
2022/08/17 00:17:05;;;;;;;3.42;2.35;;;27.20;53.50;;;;;;5087363;28;20050;-54
2022/08/17 00:19:32;;;;;;;2.72;2.53;;;27.20;53.70;;;;;;5087103;28;20032;-51
2022/08/17 00:22:01;;;;;;;3.50;2.17;;;27.20;53.80;;;;;;5086757;28;20068;-54
2022/08/17 00:24:29;;;;;;;2.67;2.20;;;27.10;53.90;;;;;;5075653;28;20048;-54
2022/08/17 00:26:56;;;;;;;3.00;2.72;;;27.10;54.10;;;;;;5085461;28;20174;-53
2022/08/17 00:29:25;;;;;;;1.92;1.55;;;27.10;54.20;;;;;;5068968;28;20052;-51
2022/08/17 00:31:52;;;;;;;2.35;2.05;;;27.10;54.30;;;;;;5087023;28;20048;-52
2022/08/17 00:34:19;;;;;;;5.43;1.80;;;27.00;54.30;;;;;;5086641;28;20512;-52
2022/08/17 00:36:46;;;;;;;2.55;2.22;;;27.00;54.40;;;;;;5086791;28;20063;-53
2022/08/17 00:39:13;;;;;;;2.67;1.80;;;27.00;54.50;;;;;;5087115;28;20066;-54
2022/08/17 00:41:40;;;;;;;3.70;1.30;;;26.90;54.50;;;;;;5068787;28;20719;-53
2022/08/17 00:44:08;;;;;;;2.78;2.45;;;26.90;54.70;;;;;;5086057;28;20048;-52
2022/08/17 00:46:41;;;;;;;2.88;2.03;;;26.90;54.80;;;;;;5087085;28;20097;-52
2022/08/17 00:49:10;;;;;;;4.82;2.35;;;26.90;54.90;;;;;;5075733;28;20050;-51
2022/08/17 00:51:42;;;;;;;2.13;1.98;;;26.90;55.00;;;;;;5068300;28;20131;-51
2022/08/17 00:54:13;;;;;;;7.43;2.13;;;26.80;55.00;;;;;;5067490;28;20045;-52
2022/08/17 00:56:53;;;;;;;3.30;1.83;;;26.80;55.00;;;;;;5086386;28;20113;-54
2022/08/17 00:59:24;;;;;;;2.35;1.92;;;26.80;55.20;;;;;;5081874;28;20109;-49
2022/08/17 01:01:53;;;;;;;2.17;1.45;;;26.70;55.20;;;;;;5080850;28;20196;-53
2022/08/17 01:04:22;;;;;;;2.03;1.83;;;26.70;55.30;;;;;;5082144;28;20040;-48
2022/08/17 01:06:49;;;;;;;4.28;2.03;;;26.70;55.30;;;;;;5082107;28;20068;-50
2022/08/17 01:09:18;;;;;;;2.60;1.95;;;26.70;55.40;;;;;;5086277;28;20512;-50
2022/08/17 01:11:51;;;;;;;3.83;2.00;;;26.70;55.50;;;;;;5086303;28;20044;-49
2022/08/17 01:14:19;;;;;;;2.08;1.65;;;26.70;55.50;;;;;;5069539;28;20040;-51
2022/08/17 01:16:48;;;;;;;3.22;1.67;;;26.70;55.60;;;;;;5070861;28;20491;-51
2022/08/17 01:19:19;;;;;;;3.30;1.95;;;26.60;55.60;;;;;;5070947;28;20538;-52
2022/08/17 01:21:50;;;;;;;3.05;1.95;;;26.60;55.60;;;;;;5086679;28;20817;-50
2022/08/17 01:24:19;;;;;;;1.85;1.45;;;26.60;56.30;;;;;;5076526;28;20520;-49
2022/08/17 01:26:47;;;;;;;1.80;1.70;;;26.60;55.80;;;;;;5079972;28;20036;-51
2022/08/17 01:29:14;;;;;;;1.65;1.55;;;26.50;56.40;;;;;;5080164;28;20048;-52
2022/08/17 01:31:45;;;;;;;2.78;2.03;;;26.50;55.90;;;;;;5073098;28;20037;-51
2022/08/17 01:34:15;;;;;;;5.03;2.13;;;26.50;56.00;;;;;;5069609;28;20056;-51
2022/08/17 01:36:44;;;;;;;2.08;1.45;;;26.50;56.00;;;;;;5077804;28;20499;-55
2022/08/17 01:39:18;;;;;;;3.38;2.42;;;26.50;56.10;;;;;;5075489;28;20044;-48
2022/08/17 01:41:48;;;;;;;3.63;1.95;;;26.50;56.20;;;;;;5067270;28;20033;-52
2022/08/17 01:44:16;;;;;;;2.33;2.05;;;26.40;56.20;;;;;;5079041;28;20047;-53
2022/08/17 01:46:43;;;;;;;2.60;1.75;;;26.40;56.20;;;;;;5086045;28;20139;-52
2022/08/17 01:49:11;;;;;;;2.20;2.10;;;26.40;56.30;;;;;;5075647;28;20856;-50
2022/08/17 01:51:39;;;;;;;4.15;1.77;;;26.40;56.40;;;;;;5068208;28;20040;-51
2022/08/17 01:54:11;;;;;;;3.97;2.03;;;26.40;56.40;;;;;;5067770;28;20044;-50
2022/08/17 01:56:42;;;;;;;1.70;1.60;;;26.40;56.50;;;;;;5069954;28;20037;-49
2022/08/17 01:59:11;;;;;;;2.90;1.75;;;26.40;56.50;;;;;;5083204;28;20422;-53
2022/08/17 02:01:39;;;;;;;2.72;1.38;;;26.30;56.50;;;;;;5090083;28;20064;-48
2022/08/17 02:04:07;;;;;;;2.70;2.10;;;26.30;56.50;;;;;;5083556;28;20044;-51
2022/08/17 02:06:36;;;;;;;3.72;2.05;;;26.30;56.60;;;;;;5077061;28;20053;-51
2022/08/17 02:09:04;;;;;;;2.67;1.90;;;26.30;56.70;;;;;;5070842;28;20044;-52
2022/08/17 02:11:32;;;;;;;4.47;2.50;;;26.30;56.60;;;;;;5072776;28;20826;-51
2022/08/17 02:14:00;;;;;;;2.08;1.98;;;26.20;56.60;;;;;;5086025;28;20037;-50
2022/08/17 02:16:28;;;;;;;2.00;1.90;;;26.20;56.70;;;;;;5069851;28;20045;-53
2022/08/17 02:18:56;;;;;;;2.60;2.28;;;26.20;56.80;;;;;;5070270;28;20075;-48
2022/08/17 02:21:23;;;;;;;2.42;2.15;;;26.20;56.80;;;;;;5084343;28;20054;-49
2022/08/17 02:23:50;;;;;;;4.35;2.53;;;26.20;56.90;;;;;;5076835;28;20052;-47
2022/08/17 02:26:17;;;;;;;1.70;1.55;;;26.20;56.90;;;;;;5089152;28;20047;-51
2022/08/17 02:28:45;;;;;;;2.33;2.10;;;26.20;56.90;;;;;;5088028;28;20050;-52
2022/08/17 02:31:12;;;;;;;3.67;2.20;;;26.20;56.90;;;;;;5070218;28;20063;-53
2022/08/17 02:33:42;;;;;;;1.75;1.55;;;26.20;57.00;;;;;;5069960;28;20060;-49
2022/08/17 02:36:09;;;;;;;1.88;1.70;;;26.20;57.00;;;;;;5070063;28;20421;-53
2022/08/17 02:38:36;;;;;;;2.63;1.92;;;26.10;56.80;;;;;;5076522;28;20116;-52
2022/08/17 02:41:04;;;;;;;2.92;2.05;;;26.10;56.90;;;;;;5069807;28;20041;-50
2022/08/17 02:43:31;;;;;;;5.28;1.67;;;26.10;57.00;;;;;;5083314;28;20127;-53
2022/08/17 02:45:58;;;;;;;1.60;1.42;;;26.10;57.00;;;;;;5069087;28;20071;-50
2022/08/17 02:48:26;;;;;;;2.25;1.88;;;26.10;57.50;;;;;;5082850;28;20045;-52
2022/08/17 02:50:54;;;;;;;2.72;1.88;;;26.10;56.80;;;;;;5080621;28;20048;-51
2022/08/17 02:53:21;;;;;;;3.10;1.80;;;26.10;56.90;;;;;;5076270;28;20483;-54
2022/08/17 02:55:48;;;;;;;3.85;1.70;;;26.10;56.80;;;;;;5082078;28;20048;-53
2022/08/17 02:58:16;;;;;;;2.55;1.73;;;26.10;56.80;;;;;;5069580;28;20814;-53
2022/08/17 03:00:46;;;;;;;3.00;2.53;;;26.10;56.80;;;;;;5069002;28;20183;-52
2022/08/17 03:03:18;;;;;;;1.25;1.23;;;26.10;56.90;;;;;;5071197;28;20048;-53
2022/08/17 03:05:47;;;;;;;3.97;1.80;;;26.00;56.80;;;;;;5082577;28;20036;-52
2022/08/17 03:08:16;;;;;;;3.80;2.20;;;26.00;56.70;;;;;;5080890;28;20405;-51
2022/08/17 03:10:44;;;;;;;4.75;1.80;;;26.00;56.80;;;;;;5082387;28;20043;-52
2022/08/17 03:13:13;;;;;;;2.08;1.50;;;26.00;57.30;;;;;;5085628;28;20040;-49
2022/08/17 03:15:43;;;;;;;2.00;1.90;;;26.00;57.40;;;;;;5067604;28;20040;-51
2022/08/17 03:18:12;;;;;;;2.08;1.63;;;25.90;56.60;;;;;;5088670;28;20040;-52
2022/08/17 03:20:39;;;;;;;1.45;1.00;;;25.90;56.70;;;;;;5088275;28;20044;-53
2022/08/17 03:23:07;;;;;;;2.85;1.70;;;25.90;56.70;;;;;;5082109;28;20123;-52
2022/08/17 03:25:38;;;;;;;2.58;2.05;;;25.90;56.70;;;;;;5081807;28;20522;-53
2022/08/17 03:28:05;;;;;;;3.22;1.20;;;25.90;56.70;;;;;;5088083;28;20044;-49
2022/08/17 03:30:34;;;;;;;4.72;1.98;;;25.90;56.80;;;;;;5079512;28;20395;-52
2022/08/17 03:33:02;;;;;;;1.60;1.50;;;25.80;56.80;;;;;;5073154;28;20063;-53
2022/08/17 03:35:32;;;;;;;4.00;1.60;;;25.80;56.90;;;;;;5079794;28;20084;-52
2022/08/17 03:38:00;;;;;;;3.65;2.58;;;25.80;57.50;;;;;;5088406;28;20485;-51
2022/08/17 03:40:27;;;;;;;2.25;1.55;;;25.80;57.50;;;;;;5088394;28;20431;-53
2022/08/17 03:42:56;;;;;;;2.05;0.95;;;25.80;56.90;;;;;;5087722;28;20071;-53
2022/08/17 03:56:43;;;;;;;5.40;2.20;;;25.70;56.80;;;;;;5076863;28;20386;-49
2022/08/17 03:59:16;;;;;;;4.88;1.60;;;25.70;56.80;;;;;;5081847;28;20040;-52
2022/08/17 04:01:44;;;;;;;2.10;2.00;;;25.70;56.90;;;;;;5081833;28;20428;-48
2022/08/17 04:04:12;;;;;;;1.73;1.63;;;25.70;56.80;;;;;;5068279;28;20052;-49
2022/08/17 04:06:40;;;;;;;1.55;1.45;;;25.70;56.80;;;;;;5068178;28;20040;-51
2022/08/17 04:09:08;;;;;;;4.10;1.50;;;25.70;56.80;;;;;;5073300;28;20052;-51
2022/08/17 04:11:37;;;;;;;4.40;1.55;;;25.70;56.80;;;;;;5068976;28;20055;-52
2022/08/17 04:14:05;;;;;;;9.63;2.38;;;25.70;56.80;;;;;;5072442;28;20396;-51
2022/08/17 04:16:34;;;;;;;3.22;3.03;;;25.70;56.80;;;;;;5067936;28;20087;-52
2022/08/17 04:19:01;;;;;;;2.60;2.40;;;25.70;57.30;;;;;;5081681;28;20055;-48
2022/08/17 04:21:28;;;;;;;3.40;1.60;;;25.70;56.60;;;;;;5087283;28;20570;-49
2022/08/17 04:23:56;;;;;;;2.30;2.10;;;25.70;56.60;;;;;;5087406;28;20044;-49
2022/08/17 04:26:24;;;;;;;1.90;1.80;;;25.70;56.60;;;;;;5085659;28;20044;-49
2022/08/17 04:28:51;;;;;;;5.22;1.15;;;25.70;56.50;;;;;;5077939;28;20044;-49
2022/08/17 04:31:18;;;;;;;6.72;2.20;;;25.70;56.50;;;;;;5072816;28;20039;-49
2022/08/17 04:33:46;;;;;;;3.67;2.50;;;25.70;56.50;;;;;;5074056;28;20493;-50
2022/08/17 04:36:15;;;;;;;2.63;2.42;;;25.70;56.60;;;;;;5068686;28;20603;-53
2022/08/17 04:38:44;;;;;;;2.00;1.77;;;25.70;56.60;;;;;;5085909;28;20123;-51
2022/08/17 04:43:59;;;;;;;3.10;1.95;;;25.60;56.50;;;;;;5080184;28;20051;-54
2022/08/17 04:46:31;;;;;;;2.10;1.95;;;25.60;56.50;;;;;;5087046;28;20498;-53
2022/08/17 04:49:01;;;;;;;3.97;2.17;;;25.70;56.50;;;;;;5084358;28;20076;-53
2022/08/17 04:51:31;;;;;;;2.92;2.45;;;25.70;56.60;;;;;;5086795;28;20040;-51
2022/08/17 04:54:00;;;;;;;4.82;1.80;;;25.70;56.70;;;;;;5086914;28;20058;-50
2022/08/17 04:56:29;;;;;;;2.72;2.53;;;25.70;56.60;;;;;;5086431;28;20508;-55
2022/08/17 04:59:01;;;;;;;2.53;2.22;;;25.60;56.60;;;;;;5086623;28;20050;-53
2022/08/17 05:01:30;;;;;;;8.10;1.83;;;25.70;56.70;;;;;;5074993;28;20420;-57
2022/08/17 05:04:01;;;;;;;4.20;2.10;;;25.70;56.70;;;;;;5075007;28;20047;-50
2022/08/17 05:06:29;;;;;;;3.10;2.53;;;25.60;56.70;;;;;;5074148;28;20411;-49
2022/08/17 05:08:58;;;;;;;2.55;2.15;;;25.60;56.70;;;;;;5067174;28;20053;-52
2022/08/17 05:11:26;;;;;;;3.45;2.33;;;25.60;56.70;;;;;;5073798;28;20048;-55
2022/08/17 05:13:54;;;;;;;3.17;2.80;;;25.60;56.80;;;;;;5076440;28;20109;-55
2022/08/17 05:16:22;;;;;;;2.75;2.55;;;25.60;56.80;;;;;;5071645;28;20051;-54
2022/08/17 05:18:50;;;;;;;2.42;2.28;;;25.60;57.30;;;;;;5072712;28;20040;-54
2022/08/17 05:21:19;;;;;;;2.60;2.00;;;25.60;56.80;;;;;;5074306;28;20557;-54
2022/08/17 05:23:46;;;;;;;4.00;2.78;;;25.60;56.80;;;;;;5072071;28;20050;-53
2022/08/17 05:26:16;;;;;;;2.90;2.58;;;25.60;56.80;;;;;;5071514;28;20090;-53
2022/08/17 05:28:43;;;;;;;4.85;4.40;;;25.60;56.90;;;;;;5071837;28;20036;-53
2022/08/17 05:31:11;;;;;;;8.02;3.05;;;25.60;56.90;;;;;;5086104;28;20040;-54
2022/08/17 05:33:39;;;;;;;3.72;2.53;;;25.60;56.90;;;;;;5085384;28;20040;-55
2022/08/17 05:36:09;;;;;;;4.65;2.65;;;25.60;57.00;;;;;;5068597;28;20155;-56
2022/08/17 05:38:37;;;;;;;2.72;2.53;;;25.60;56.90;;;;;;5086799;28;20040;-54
2022/08/17 05:41:07;;;;;;;4.60;3.05;;;25.60;57.10;;;;;;5090268;28;20043;-50
2022/08/17 05:43:37;;;;;;;4.22;2.63;;;25.60;57.20;;;;;;5084347;28;20127;-60
2022/08/17 05:46:10;;;;;;;3.20;2.90;;;25.60;57.20;;;;;;5087994;28;20100;-46
2022/08/17 05:48:41;;;;;;;4.22;2.38;;;25.60;57.20;;;;;;5087725;28;20127;-46
2022/08/17 05:51:40;;;;;;;4.85;2.85;;;25.60;57.20;;;;;;5085280;28;20125;-51
2022/08/17 05:54:27;;;;;;;4.35;3.08;;;25.60;57.30;;;;;;5082493;28;20043;-47
2022/08/17 05:57:12;;;;;;;3.15;2.28;;;25.60;57.30;;;;;;5080791;28;20040;-45
2022/08/17 05:59:52;;;;;;;5.07;3.08;;;25.60;57.30;;;;;;5075987;28;20127;-45
2022/08/17 06:02:23;;;;;;;5.07;3.22;;;25.60;57.30;;;;;;5074660;28;20045;-47
2022/08/17 06:05:05;;;;;;;11.68;5.65;;;25.50;57.20;;;;;;5070359;28;20079;-51
2022/08/17 06:07:39;;;;;;;7.22;4.53;;;25.60;57.70;;;;;;5078335;28;20035;-53
2022/08/17 06:10:14;;;;;;;5.80;3.97;;;25.60;57.60;;;;;;5083213;28;20047;-50
2022/08/17 06:12:52;;;;;;;4.18;3.00;;;25.60;57.40;;;;;;5080790;28;20064;-53
2022/08/17 06:15:28;;;;;;;4.45;2.58;;;25.60;57.70;;;;;;5085226;28;20059;-48
2022/08/17 06:17:58;;;;;;;2.75;2.20;;;25.60;57.80;;;;;;5084471;28;20127;-55
2022/08/17 06:20:30;;;;;;;4.43;3.72;;;25.60;58.10;;;;;;5079127;28;20632;-54
2022/08/17 06:23:03;;;;;;;2.83;2.58;;;25.60;58.20;;;;;;5054912;28;20049;-52
2022/08/17 06:25:38;;;;;;;2.90;2.50;;;25.70;58.30;;;;;;5081112;28;20032;-48
2022/08/17 06:28:11;;;;;;;2.65;2.45;;;25.80;58.40;;;;;;5082729;28;20040;-48
2022/08/17 06:30:46;;;;;;;3.75;2.72;;;25.80;58.20;;;;;;5083645;28;20405;-50
2022/08/17 06:33:19;;;;;;;2.55;2.35;;;25.90;58.10;;;;;;5080813;28;20043;-47
2022/08/17 06:36:01;;;;;;;2.75;2.58;;;26.00;58.10;;;;;;5077866;28;20043;-47
2022/08/17 06:38:35;;;;;;;3.65;3.35;;;26.10;57.90;;;;;;5076806;28;20075;-51
2022/08/17 06:41:14;;;;;;;4.70;3.03;;;26.20;57.70;;;;;;5076031;28;20053;-60
2022/08/17 06:43:53;;;;;;;3.20;2.90;;;26.30;58.00;;;;;;5081056;28;20045;-56
2022/08/17 06:46:34;;;;;;;2.88;2.67;;;26.40;57.20;;;;;;5076834;28;20043;-56
2022/08/17 06:49:13;;;;;;;3.13;2.80;;;26.40;57.10;;;;;;5080718;28;20706;-57
2022/08/17 06:51:45;;;;;;;5.53;2.92;;;26.50;56.90;;;;;;5075876;28;20131;-59
2022/08/17 06:54:19;;;;;;;2.60;2.45;;;26.60;56.70;;;;;;5079721;28;20091;-55
2022/08/17 06:56:53;;;;;;;2.70;2.05;;;26.70;56.50;;;;;;5083993;28;20067;-57
2022/08/17 06:59:25;;;;;;;4.68;2.75;;;26.80;56.40;;;;;;5086385;28;20559;-58
2022/08/17 07:01:55;;;;;;;2.80;2.60;;;26.90;56.30;;;;;;5077487;28;20581;-61
2022/08/17 07:04:26;;;;;;;7.65;2.65;;;26.90;56.10;;;;;;5074993;28;20048;-56
2022/08/17 07:06:58;;;;;;;8.02;2.67;;;27.00;55.90;;;;;;5084433;28;20032;-60
2022/08/17 07:09:29;;;;;;;4.40;2.38;;;27.10;55.90;;;;;;5078603;28;20040;-55
2022/08/17 07:12:05;;;;;;;3.05;2.80;;;27.20;55.60;;;;;;5077636;28;20054;-65
2022/08/17 07:14:36;;;;;;;4.65;2.88;;;27.20;55.40;;;;;;5082142;28;20633;-70
2022/08/17 07:17:07;;;;;;;3.85;2.22;;;27.20;55.30;;;;;;5081053;28;20139;-69
2022/08/17 07:19:39;;;;;;;4.85;2.25;;;27.20;55.10;;;;;;5075300;28;20044;-69
2022/08/17 07:22:16;;;;;;;4.38;3.40;;;27.20;54.80;;;;;;5066695;28;20063;-60
2022/08/17 07:24:49;;;;;;;5.97;4.60;;;27.30;54.80;;;;;;5076339;28;20044;-62
2022/08/17 07:27:21;;;;;;;3.13;2.53;;;27.30;54.50;;;;;;5078884;28;20044;-59
2022/08/17 07:29:53;;;;;;;6.53;2.40;;;27.30;54.40;;;;;;5085880;28;20494;-60
2022/08/17 07:32:25;;;;;;;3.80;1.95;;;27.30;54.30;;;;;;5078300;28;20070;-49
2022/08/17 07:35:09;;;;;;;6.57;2.60;;;27.30;54.10;;;;;;5080744;28;20064;-49
2022/08/17 07:37:38;;;;;;;3.33;2.90;;;27.40;54.00;;;;;;5074886;28;20069;-53
2022/08/17 07:40:18;;;;;;;4.90;2.47;;;27.40;54.00;;;;;;5086045;28;20487;-50
2022/08/17 07:48:50;;;;;;;4.05;1.73;;;27.50;53.80;;;;;;5057803;28;20596;-60
2022/08/17 07:51:22;;;;;;;5.32;2.58;;;27.40;53.90;;;;;;5063209;28;20128;-61
2022/08/17 07:53:49;;;;;;;2.65;2.45;;;27.40;53.90;;;;;;5062535;28;20029;-59
2022/08/17 07:56:35;;;;;;;3.75;3.13;;;27.50;53.90;;;;;;5058737;28;20091;-60
2022/08/17 07:59:15;;;;;;;2.65;2.35;;;27.50;53.70;;;;;;5062106;28;20459;-60
2022/08/17 08:01:46;;;;;;;6.05;1.98;;;27.50;53.80;;;;;;5059274;28;20040;-58
2022/08/17 08:04:28;;;;;;;4.18;2.63;;;27.50;53.80;;;;;;5062345;28;20098;-60
2022/08/17 08:06:58;;;;;;;3.63;2.33;;;27.50;53.70;;;;;;5063665;28;20493;-58
2022/08/17 08:09:34;;;;;;;2.97;1.98;;;27.50;53.70;;;;;;5062609;28;20033;-50
2022/08/17 08:12:23;;;;;;;2.30;1.98;;;27.60;53.70;;;;;;5063573;28;20529;-53
2022/08/17 08:14:57;;;;;;;2.63;2.42;;;27.60;53.60;;;;;;5064354;28;20728;-61
2022/08/17 08:17:34;;;;;;;3.90;1.67;;;27.60;53.60;;;;;;5067408;28;20067;-58
2022/08/17 08:20:05;;;;;;;3.67;1.83;;;27.60;53.50;;;;;;5066465;28;20140;-50
2022/08/17 08:22:45;;;;;;;4.00;1.42;;;27.60;53.70;;;;;;5061184;28;20102;-55
2022/08/17 08:25:24;;;;;;;2.75;1.98;;;27.60;53.30;;;;;;5063563;28;20132;-56
2022/08/17 08:28:03;;;;;;;2.28;2.03;;;27.60;53.40;;;;;;5056486;28;20051;-50
2022/08/17 08:30:35;;;;;;;1.98;1.88;;;27.70;53.40;;;;;;5056476;28;20046;-50
2022/08/17 08:33:30;;;;;;;3.35;2.60;;;27.70;53.30;;;;;;5063440;28;20045;-46
2022/08/17 08:36:08;;;;;;;2.22;1.58;;;27.70;53.10;;;;;;5063722;28;20122;-47
2022/08/17 08:38:46;;;;;;;3.78;3.47;;;27.60;53.40;;;;;;5063044;28;20044;-48
2022/08/17 08:41:32;;;;;;;4.43;1.70;;;27.60;53.80;;;;;;5062802;28;20068;-48
2022/08/17 08:44:08;;;;;;;1.48;1.42;;;27.60;54.00;;;;;;5063149;28;20188;-48
2022/08/17 08:46:46;;;;;;;4.95;1.60;;;27.60;54.30;;;;;;5063479;28;20136;-49
2022/08/17 08:49:41;;;;;;;2.00;1.00;;;27.60;54.40;;;;;;5058044;28;20121;-44
2022/08/17 08:52:16;;;;;;;3.20;1.05;;;27.70;54.50;;;;;;5063495;28;20655;-47
2022/08/17 08:54:48;;;;;;;1.65;1.55;;;27.70;54.40;;;;;;5062599;28;20041;-48
2022/08/17 08:57:20;;;;;;;2.85;1.58;;;27.70;54.40;;;;;;5049477;28;20041;-46
2022/08/17 09:00:02;;;;;;;4.82;1.67;;;27.70;54.90;;;;;;5049951;28;20045;-47
2022/08/17 09:02:44;;;;;;;2.70;1.13;;;27.80;54.30;;;;;;5044221;28;20067;-51
2022/08/17 09:05:25;;;;;;;1.20;1.10;;;27.80;54.30;;;;;;5047052;28;20100;-46
2022/08/17 09:08:02;;;;;;;2.45;1.65;;;27.80;54.30;;;;;;5049471;28;20041;-49
2022/08/17 09:10:37;;;;;;;9.48;2.40;;;27.80;54.20;;;;;;5043007;28;20079;-47
2022/08/17 09:13:15;;;;;;;2.92;2.13;;;27.80;54.10;;;;;;5049754;28;20048;-47
2022/08/17 09:15:46;;;;;;;1.77;1.25;;;27.80;54.10;;;;;;5049298;28;20103;-49
2022/08/17 09:18:19;;;;;;;4.80;1.45;;;27.90;54.20;;;;;;5049843;28;20336;-49
2022/08/17 09:20:53;;;;;;;2.85;1.42;;;27.90;54.10;;;;;;5049313;28;20118;-46
2022/08/17 09:23:33;;;;;;;1.70;1.38;;;27.90;54.00;;;;;;5049269;28;20044;-45
2022/08/17 09:26:06;;;;;;;2.88;1.17;;;28.00;53.90;;;;;;5049067;28;20122;-47
2022/08/17 09:28:37;;;;;;;1.42;1.25;;;28.00;53.90;;;;;;5049326;28;20044;-48
2022/08/17 09:31:09;;;;;;;1.67;0.90;;;28.00;53.80;;;;;;5042742;28;20583;-48
2022/08/17 09:33:42;;;;;;;1.45;1.15;;;28.00;53.70;;;;;;5044632;28;20844;-48
2022/08/17 09:36:15;;;;;;;1.85;1.23;;;28.10;53.70;;;;;;5049790;28;20052;-48
2022/08/17 09:38:53;;;;;;;1.63;1.23;;;28.00;53.60;;;;;;5049733;28;20037;-46
2022/08/17 09:41:27;;;;;;;2.33;1.63;;;28.10;53.60;;;;;;5050474;28;20142;-50
2022/08/17 09:44:02;;;;;;;1.33;1.17;;;28.10;53.70;;;;;;5049375;28;20053;-49
2022/08/17 09:46:33;;;;;;;1.42;1.33;;;28.10;53.70;;;;;;5053592;28;20118;-47
2022/08/17 09:49:06;;;;;;;1.50;1.10;;;28.10;53.60;;;;;;5049622;28;20118;-47
2022/08/17 09:51:39;;;;;;;2.30;1.08;;;28.10;53.50;;;;;;5049120;28;20148;-45
2022/08/17 09:54:17;;;;;;;3.55;3.13;;;28.20;53.60;;;;;;5049555;28;20041;-45
2022/08/17 09:56:52;;;;;;;1.15;1.00;;;28.20;53.50;;;;;;5044539;28;20064;-46
2022/08/17 09:59:34;;;;;;;2.47;1.70;;;28.20;53.50;;;;;;5048979;28;20573;-45
2022/08/17 10:02:25;;;;;;;1.25;1.17;;;28.20;53.40;;;;;;5047423;28;20569;-46
2022/08/17 10:05:01;;;;;;;2.70;1.55;;;28.30;53.50;;;;;;5051099;28;20395;-48
2022/08/17 10:07:38;;;;;;;4.03;1.48;;;28.20;53.40;;;;;;5046498;28;20068;-46
2022/08/17 10:10:13;;;;;;;1.13;1.13;;;28.20;53.30;;;;;;5049022;28;20048;-45
2022/08/17 10:12:49;;;;;;;1.80;1.58;;;28.20;53.90;;;;;;5048041;28;20574;-45
2022/08/17 10:15:24;;;;;;;2.65;1.48;;;28.20;53.20;;;;;;5048076;28;20616;-46
2022/08/17 10:18:07;;;;;;;1.63;1.02;;;28.20;53.20;;;;;;5048555;28;20484;-45
2022/08/17 10:20:49;;;;;;;2.65;1.52;;;28.30;53.20;;;;;;5043560;28;20044;-46
2022/08/17 10:26:14;;;;;;;1.38;0.80;;;28.30;53.10;;;;;;5048080;28;20047;-45
2022/08/17 10:28:48;;;;;;;1.50;1.40;;;28.30;53.10;;;;;;5041725;28;20057;-45
2022/08/17 10:31:23;;;;;;;1.73;1.63;;;28.30;53.10;;;;;;5048383;28;20049;-45
2022/08/17 10:34:03;;;;;;;4.50;1.08;;;28.30;53.10;;;;;;5047695;28;20045;-46
2022/08/17 10:36:42;;;;;;;0.82;0.73;;;28.30;53.10;;;;;;5048169;28;20037;-48
2022/08/17 10:39:22;;;;;;;1.85;1.23;;;28.40;53.10;;;;;;5047892;28;20041;-45
2022/08/17 10:41:54;;;;;;;1.02;0.93;;;28.40;53.10;;;;;;5042104;28;20137;-46
2022/08/17 10:44:28;;;;;;;1.65;1.55;;;28.40;53.00;;;;;;5046999;28;20127;-46
2022/08/17 10:47:06;;;;;;;1.33;1.23;;;28.40;53.00;;;;;;5040706;28;20045;-46
2022/08/17 10:49:35;;;;;;;3.83;1.33;;;28.40;52.90;;;;;;5047915;28;20116;-48
2022/08/17 10:52:25;;;;;;;1.67;1.67;;;28.40;52.90;;;;;;5048148;28;20040;-46
2022/08/17 10:55:12;;;;;;;3.17;1.65;;;28.40;52.90;;;;;;5041939;28;20056;-49
2022/08/17 10:57:43;;;;;;;1.33;1.23;;;28.50;53.20;;;;;;5048179;28;20032;-52
2022/08/17 11:00:14;;;;;;;4.47;1.40;;;28.50;53.50;;;;;;5047119;28;20037;-46
2022/08/17 11:02:50;;;;;;;10.90;2.90;;;28.50;53.80;;;;;;5047168;28;20539;-53
2022/08/17 11:05:45;;;;;;;1.63;1.52;;;28.50;54.20;;;;;;5046185;28;20432;-57
2022/08/17 11:08:39;;;;;;;5.07;1.58;;;28.50;54.30;;;;;;5041777;28;20129;-57
2022/08/17 11:11:33;;;;;;;4.75;1.50;;;28.60;54.70;;;;;;5045109;28;20132;-58
2022/08/17 11:14:13;;;;;;;2.67;1.83;;;28.60;55.00;;;;;;5045568;28;20072;-55
2022/08/17 11:16:51;;;;;;;2.92;1.73;;;28.60;55.10;;;;;;5051454;28;20040;-55
2022/08/17 11:20:03;;;;;;;2.58;1.63;;;28.60;55.00;;;;;;5048915;28;20045;-52
2022/08/17 11:23:02;;;;;;;2.50;2.30;;;28.70;54.90;;;;;;5044763;28;20092;-59
2022/08/17 11:25:37;;;;;;;1.50;1.40;;;28.80;54.90;;;;;;5045925;28;20061;-57
2022/08/17 11:28:15;;;;;;;2.13;1.50;;;28.80;54.80;;;;;;5046660;28;20116;-59
2022/08/17 11:30:47;;;;;;;2.05;1.80;;;28.80;54.70;;;;;;5054607;28;20573;-56
2022/08/17 11:33:51;;;;;;;3.42;1.48;;;28.90;54.60;;;;;;5046166;28;20132;-50
2022/08/17 11:36:28;;;;;;;1.95;1.67;;;29.00;54.50;;;;;;5045954;28;20041;-60
2022/08/17 11:39:00;;;;;;;2.60;1.58;;;29.00;54.30;;;;;;5050626;28;20071;-50
2022/08/17 11:41:36;;;;;;;7.30;1.50;;;29.10;54.30;;;;;;5049941;28;20080;-62
2022/08/17 11:44:18;;;;;;;6.80;2.05;;;29.20;54.20;;;;;;5048148;28;20037;-65
2022/08/17 11:52:46;;;;;;;1.95;1.85;;;29.40;53.90;;;;;;5045245;28;20646;-50
2022/08/17 11:55:51;;;;;;;2.60;1.63;;;29.50;53.80;;;;;;5046337;28;20162;-60
2022/08/17 11:58:40;;;;;;;2.35;1.65;;;29.60;53.50;;;;;;5048024;28;20083;-60
2022/08/17 12:01:11;;;;;;;3.63;3.22;;;29.70;53.40;;;;;;5045151;28;20132;-59
2022/08/17 12:03:45;;;;;;;3.17;3.00;;;29.70;52.50;;;;;;5048469;28;20041;-61
2022/08/17 12:06:32;;;;;;;3.55;3.28;;;29.80;51.90;;;;;;5048210;28;20051;-53
2022/08/17 12:09:09;;;;;;;3.92;3.55;;;29.80;51.30;;;;;;5036747;28;20044;-57
2022/08/17 12:11:42;;;;;;;3.47;3.17;;;29.90;50.70;;;;;;5047775;28;20504;-45
2022/08/17 12:14:13;;;;;;;3.63;3.33;;;29.90;50.30;;;;;;5053149;28;20049;-45
2022/08/17 12:16:43;;;;;;;5.32;4.10;;;30.00;50.20;;;;;;5046571;28;20049;-45
2022/08/17 12:19:19;;;;;;;3.88;3.47;;;30.00;50.00;;;;;;5047015;28;20154;-47
2022/08/17 12:21:53;;;;;;;4.25;3.95;;;30.10;49.70;;;;;;5046494;28;20114;-46
2022/08/17 12:24:40;;;;;;;5.65;4.05;;;30.10;49.50;;;;;;5045204;28;20420;-47
2022/08/17 12:27:10;;;;;;;4.38;2.95;;;30.10;49.10;;;;;;5052986;28;20116;-48
2022/08/17 12:29:42;;;;;;;4.55;4.00;;;30.20;49.00;;;;;;5050449;28;20637;-46
2022/08/17 12:32:18;;;;;;;4.40;4.03;;;30.20;48.90;;;;;;5059177;28;20090;-45
2022/08/17 12:34:47;;;;;;;5.35;3.38;;;30.30;48.70;;;;;;5052481;28;20065;-48
2022/08/17 12:37:18;;;;;;;4.13;3.60;;;30.30;48.70;;;;;;5054113;28;20045;-48
2022/08/17 12:39:52;;;;;;;3.95;3.65;;;30.30;48.50;;;;;;5049938;28;20048;-46
2022/08/17 12:42:25;;;;;;;3.42;3.22;;;30.30;48.30;;;;;;5050396;28;20536;-46
2022/08/17 12:44:52;;;;;;;3.83;3.47;;;30.30;48.20;;;;;;5050000;28;20051;-46
2022/08/17 12:47:20;;;;;;;7.03;3.85;;;30.40;48.00;;;;;;5049663;28;20045;-46
2022/08/17 12:49:50;;;;;;;3.00;2.90;;;30.40;47.80;;;;;;5049671;28;20091;-46
2022/08/17 12:52:23;;;;;;;3.72;3.47;;;30.40;47.70;;;;;;5050152;28;20056;-45
2022/08/17 12:55:01;;;;;;;3.60;3.40;;;30.40;47.50;;;;;;5049798;28;20049;-48
2022/08/17 12:57:32;;;;;;;4.15;2.92;;;30.50;47.50;;;;;;5048655;28;20048;-45
2022/08/17 13:00:02;;;;;;;6.00;3.17;;;30.50;48.20;;;;;;5049830;28;20094;-47
2022/08/17 13:02:42;;;;;;;3.60;3.30;;;30.50;47.60;;;;;;5049903;28;20056;-46
2022/08/17 13:05:20;;;;;;;8.80;3.38;;;30.60;47.60;;;;;;5047295;28;20045;-47
2022/08/17 13:07:47;;;;;;;3.58;3.30;;;30.60;47.60;;;;;;5047501;28;20133;-46
2022/08/17 13:10:22;;;;;;;3.85;3.42;;;30.60;47.60;;;;;;5049359;28;20069;-46
2022/08/17 13:12:51;;;;;;;7.93;3.08;;;30.60;47.60;;;;;;5049796;28;20123;-45
2022/08/17 13:15:24;;;;;;;3.95;3.13;;;30.70;47.60;;;;;;5049929;28;20045;-47
2022/08/17 13:18:00;;;;;;;7.05;3.40;;;30.80;47.50;;;;;;5048234;28;20576;-47
2022/08/17 13:20:28;;;;;;;3.42;3.22;;;30.80;47.30;;;;;;5042423;28;20136;-48
2022/08/17 13:22:57;;;;;;;2.97;2.78;;;30.80;47.20;;;;;;5050458;28;20041;-49
2022/08/17 13:25:25;;;;;;;5.97;4.63;;;30.80;47.00;;;;;;5049115;28;20056;-47
2022/08/17 13:27:55;;;;;;;3.30;3.10;;;30.90;47.00;;;;;;5049598;28;20136;-48
2022/08/17 13:30:26;;;;;;;2.55;2.45;;;30.90;46.90;;;;;;5049041;28;20048;-46
2022/08/17 13:32:55;;;;;;;3.03;2.78;;;31.00;47.00;;;;;;5048979;28;20037;-47
2022/08/17 13:35:45;;;;;;;6.53;3.22;;;31.00;47.00;;;;;;5055671;28;20033;-46
2022/08/17 13:38:16;;;;;;;4.45;2.90;;;31.00;47.20;;;;;;5043369;28;20084;-47
2022/08/17 13:40:50;;;;;;;2.80;2.60;;;31.00;46.40;;;;;;5048984;28;20049;-46
2022/08/17 13:43:44;;;;;;;3.58;2.25;;;31.10;46.20;;;;;;5052624;28;20033;-46
2022/08/17 13:46:19;;;;;;;2.25;1.85;;;31.20;46.00;;;;;;5048731;28;20052;-47
2022/08/17 13:48:56;;;;;;;2.60;2.40;;;31.20;45.70;;;;;;5047953;28;20711;-49